sensor_id;sensor_type;location;lat;lon;timestamp;P1;durP1;ratioP1;P2;durP2;ratioP2
24799;SDS011;12897;50.812;4.430;2023-01-24T00:01:04;75.72;;;40.88;;
24799;SDS011;12897;50.812;4.430;2023-01-24T00:03:32;73.52;;;40.75;;
24799;SDS011;12897;50.812;4.430;2023-01-24T00:05:59;77.37;;;39.60;;
24799;SDS011;12897;50.812;4.430;2023-01-24T00:08:27;76.33;;;37.65;;
24799;SDS011;12897;50.812;4.430;2023-01-24T00:11:01;79.72;;;41.83;;
24799;SDS011;12897;50.812;4.430;2023-01-24T00:13:31;76.85;;;38.95;;
24799;SDS011;12897;50.812;4.430;2023-01-24T00:16:16;79.92;;;42.53;;
24799;SDS011;12897;50.812;4.430;2023-01-24T00:18:45;80.32;;;43.33;;
24799;SDS011;12897;50.812;4.430;2023-01-24T00:21:14;84.65;;;44.03;;
24799;SDS011;12897;50.812;4.430;2023-01-24T00:23:45;80.87;;;42.20;;
24799;SDS011;12897;50.812;4.430;2023-01-24T00:26:14;86.72;;;44.03;;
24799;SDS011;12897;50.812;4.430;2023-01-24T00:28:42;79.42;;;43.58;;
24799;SDS011;12897;50.812;4.430;2023-01-24T00:31:10;68.28;;;33.33;;
24799;SDS011;12897;50.812;4.430;2023-01-24T00:33:38;81.55;;;42.85;;
24799;SDS011;12897;50.812;4.430;2023-01-24T00:36:06;72.45;;;37.35;;
24799;SDS011;12897;50.812;4.430;2023-01-24T00:38:34;80.85;;;44.05;;
24799;SDS011;12897;50.812;4.430;2023-01-24T00:41:02;75.97;;;40.85;;
24799;SDS011;12897;50.812;4.430;2023-01-24T00:43:29;78.33;;;42.98;;
24799;SDS011;12897;50.812;4.430;2023-01-24T00:45:57;76.22;;;40.23;;
24799;SDS011;12897;50.812;4.430;2023-01-24T00:48:25;70.12;;;35.17;;
24799;SDS011;12897;50.812;4.430;2023-01-24T00:50:52;77.08;;;41.88;;
24799;SDS011;12897;50.812;4.430;2023-01-24T00:53:20;72.92;;;41.58;;
24799;SDS011;12897;50.812;4.430;2023-01-24T00:55:53;78.65;;;43.52;;
24799;SDS011;12897;50.812;4.430;2023-01-24T00:58:26;77.92;;;42.20;;
24799;SDS011;12897;50.812;4.430;2023-01-24T01:00:56;78.60;;;42.08;;
24799;SDS011;12897;50.812;4.430;2023-01-24T01:03:26;79.50;;;43.20;;
24799;SDS011;12897;50.812;4.430;2023-01-24T01:05:57;75.40;;;41.42;;
24799;SDS011;12897;50.812;4.430;2023-01-24T01:08:29;77.82;;;42.83;;
24799;SDS011;12897;50.812;4.430;2023-01-24T01:10:56;76.15;;;40.65;;
24799;SDS011;12897;50.812;4.430;2023-01-24T01:13:24;70.45;;;36.00;;
24799;SDS011;12897;50.812;4.430;2023-01-24T01:16:03;70.40;;;38.70;;
24799;SDS011;12897;50.812;4.430;2023-01-24T01:18:34;65.03;;;33.00;;
24799;SDS011;12897;50.812;4.430;2023-01-24T01:21:04;68.80;;;36.80;;
24799;SDS011;12897;50.812;4.430;2023-01-24T01:23:32;65.20;;;35.55;;
24799;SDS011;12897;50.812;4.430;2023-01-24T01:26:06;67.25;;;37.33;;
24799;SDS011;12897;50.812;4.430;2023-01-24T01:28:30;68.37;;;38.10;;
24799;SDS011;12897;50.812;4.430;2023-01-24T01:30:58;69.58;;;35.33;;
24799;SDS011;12897;50.812;4.430;2023-01-24T01:33:27;70.42;;;38.23;;
24799;SDS011;12897;50.812;4.430;2023-01-24T01:35:55;72.60;;;39.48;;
24799;SDS011;12897;50.812;4.430;2023-01-24T01:38:23;69.25;;;37.55;;
24799;SDS011;12897;50.812;4.430;2023-01-24T01:40:51;71.77;;;37.73;;
24799;SDS011;12897;50.812;4.430;2023-01-24T01:43:19;61.48;;;29.72;;
24799;SDS011;12897;50.812;4.430;2023-01-24T01:45:49;68.28;;;34.53;;
24799;SDS011;12897;50.812;4.430;2023-01-24T01:53:46;69.85;;;38.17;;
24799;SDS011;12897;50.812;4.430;2023-01-24T01:56:13;73.00;;;38.65;;
24799;SDS011;12897;50.812;4.430;2023-01-24T01:58:42;69.60;;;35.52;;
24799;SDS011;12897;50.812;4.430;2023-01-24T02:01:10;71.42;;;37.25;;
24799;SDS011;12897;50.812;4.430;2023-01-24T02:03:47;71.70;;;37.08;;
24799;SDS011;12897;50.812;4.430;2023-01-24T02:06:59;69.75;;;35.75;;
24799;SDS011;12897;50.812;4.430;2023-01-24T02:08:55;67.47;;;35.98;;
24799;SDS011;12897;50.812;4.430;2023-01-24T02:11:24;68.25;;;36.50;;
24799;SDS011;12897;50.812;4.430;2023-01-24T02:14:10;68.83;;;36.20;;
24799;SDS011;12897;50.812;4.430;2023-01-24T02:16:53;71.95;;;36.55;;
24799;SDS011;12897;50.812;4.430;2023-01-24T02:19:31;69.17;;;35.95;;
24799;SDS011;12897;50.812;4.430;2023-01-24T02:22:07;63.15;;;34.78;;
24799;SDS011;12897;50.812;4.430;2023-01-24T02:24:36;63.33;;;34.88;;
24799;SDS011;12897;50.812;4.430;2023-01-24T02:27:05;66.95;;;35.70;;
24799;SDS011;12897;50.812;4.430;2023-01-24T02:29:38;61.65;;;34.18;;
24799;SDS011;12897;50.812;4.430;2023-01-24T02:34:49;61.58;;;34.27;;
24799;SDS011;12897;50.812;4.430;2023-01-24T02:37:27;63.63;;;34.33;;
24799;SDS011;12897;50.812;4.430;2023-01-24T02:40:07;64.67;;;35.17;;
24799;SDS011;12897;50.812;4.430;2023-01-24T02:42:37;60.38;;;33.78;;
24799;SDS011;12897;50.812;4.430;2023-01-24T02:45:18;65.33;;;33.30;;
24799;SDS011;12897;50.812;4.430;2023-01-24T02:47:52;58.95;;;33.80;;
24799;SDS011;12897;50.812;4.430;2023-01-24T02:52:53;62.55;;;34.08;;
24799;SDS011;12897;50.812;4.430;2023-01-24T02:55:41;61.70;;;32.05;;
24799;SDS011;12897;50.812;4.430;2023-01-24T02:58:26;60.75;;;34.08;;
24799;SDS011;12897;50.812;4.430;2023-01-24T03:00:55;63.23;;;33.98;;
24799;SDS011;12897;50.812;4.430;2023-01-24T03:03:31;58.68;;;33.70;;
24799;SDS011;12897;50.812;4.430;2023-01-24T03:06:06;60.20;;;32.58;;
24799;SDS011;12897;50.812;4.430;2023-01-24T03:08:40;64.58;;;35.23;;
24799;SDS011;12897;50.812;4.430;2023-01-24T03:11:09;67.05;;;35.13;;
24799;SDS011;12897;50.812;4.430;2023-01-24T03:13:37;62.83;;;33.55;;
24799;SDS011;12897;50.812;4.430;2023-01-24T03:16:33;65.52;;;35.17;;
24799;SDS011;12897;50.812;4.430;2023-01-24T03:19:18;55.33;;;29.92;;
24799;SDS011;12897;50.812;4.430;2023-01-24T03:22:04;63.40;;;34.43;;
24799;SDS011;12897;50.812;4.430;2023-01-24T03:24:50;58.75;;;29.42;;
24799;SDS011;12897;50.812;4.430;2023-01-24T03:27:35;59.30;;;32.53;;
24799;SDS011;12897;50.812;4.430;2023-01-24T03:30:21;57.83;;;32.35;;
24799;SDS011;12897;50.812;4.430;2023-01-24T03:33:06;58.60;;;31.37;;
24799;SDS011;12897;50.812;4.430;2023-01-24T03:35:51;57.75;;;31.42;;
24799;SDS011;12897;50.812;4.430;2023-01-24T03:38:23;54.33;;;31.10;;
24799;SDS011;12897;50.812;4.430;2023-01-24T03:41:08;52.20;;;30.45;;
24799;SDS011;12897;50.812;4.430;2023-01-24T03:43:35;52.70;;;29.40;;
24799;SDS011;12897;50.812;4.430;2023-01-24T03:46:03;56.23;;;30.60;;
24799;SDS011;12897;50.812;4.430;2023-01-24T03:48:31;56.45;;;31.93;;
24799;SDS011;12897;50.812;4.430;2023-01-24T03:51:03;56.58;;;31.25;;
24799;SDS011;12897;50.812;4.430;2023-01-24T03:53:49;57.40;;;31.48;;
24799;SDS011;12897;50.812;4.430;2023-01-24T03:56:17;56.37;;;32.00;;
24799;SDS011;12897;50.812;4.430;2023-01-24T03:58:44;53.87;;;30.72;;
24799;SDS011;12897;50.812;4.430;2023-01-24T04:01:12;58.23;;;31.02;;
24799;SDS011;12897;50.812;4.430;2023-01-24T04:03:40;59.42;;;31.55;;
24799;SDS011;12897;50.812;4.430;2023-01-24T04:06:07;57.08;;;30.25;;
24799;SDS011;12897;50.812;4.430;2023-01-24T04:08:35;58.40;;;31.37;;
24799;SDS011;12897;50.812;4.430;2023-01-24T04:11:02;58.15;;;31.12;;
24799;SDS011;12897;50.812;4.430;2023-01-24T04:13:30;51.70;;;25.85;;
24799;SDS011;12897;50.812;4.430;2023-01-24T04:15:57;52.20;;;28.60;;
24799;SDS011;12897;50.812;4.430;2023-01-24T04:18:25;51.53;;;26.90;;
24799;SDS011;12897;50.812;4.430;2023-01-24T04:20:52;53.35;;;29.72;;
24799;SDS011;12897;50.812;4.430;2023-01-24T04:23:21;49.67;;;28.47;;
24799;SDS011;12897;50.812;4.430;2023-01-24T04:25:49;49.73;;;27.40;;
24799;SDS011;12897;50.812;4.430;2023-01-24T04:28:20;50.98;;;29.07;;
24799;SDS011;12897;50.812;4.430;2023-01-24T04:30:48;50.48;;;28.35;;
24799;SDS011;12897;50.812;4.430;2023-01-24T04:33:15;52.27;;;29.98;;
24799;SDS011;12897;50.812;4.430;2023-01-24T04:35:43;53.98;;;30.85;;
24799;SDS011;12897;50.812;4.430;2023-01-24T04:38:11;51.88;;;29.95;;
24799;SDS011;12897;50.812;4.430;2023-01-24T04:40:38;53.30;;;29.05;;
24799;SDS011;12897;50.812;4.430;2023-01-24T04:43:06;51.95;;;27.13;;
24799;SDS011;12897;50.812;4.430;2023-01-24T04:45:39;51.00;;;28.05;;
24799;SDS011;12897;50.812;4.430;2023-01-24T04:48:13;49.48;;;29.07;;
24799;SDS011;12897;50.812;4.430;2023-01-24T04:50:41;51.48;;;29.45;;
24799;SDS011;12897;50.812;4.430;2023-01-24T04:53:08;57.35;;;30.88;;
24799;SDS011;12897;50.812;4.430;2023-01-24T04:55:36;56.10;;;31.05;;
24799;SDS011;12897;50.812;4.430;2023-01-24T04:58:09;51.37;;;28.80;;
24799;SDS011;12897;50.812;4.430;2023-01-24T05:00:47;57.80;;;31.23;;
24799;SDS011;12897;50.812;4.430;2023-01-24T05:03:15;53.23;;;30.68;;
24799;SDS011;12897;50.812;4.430;2023-01-24T05:05:43;55.03;;;31.57;;
24799;SDS011;12897;50.812;4.430;2023-01-24T05:08:10;56.68;;;30.52;;
24799;SDS011;12897;50.812;4.430;2023-01-24T05:10:38;52.75;;;30.32;;
24799;SDS011;12897;50.812;4.430;2023-01-24T05:13:05;56.00;;;30.90;;
24799;SDS011;12897;50.812;4.430;2023-01-24T05:15:33;55.65;;;32.25;;
24799;SDS011;12897;50.812;4.430;2023-01-24T05:18:01;53.00;;;29.18;;
24799;SDS011;12897;50.812;4.430;2023-01-24T05:20:29;57.08;;;32.08;;
24799;SDS011;12897;50.812;4.430;2023-01-24T05:22:57;53.23;;;30.88;;
24799;SDS011;12897;50.812;4.430;2023-01-24T05:25:25;56.35;;;30.48;;
24799;SDS011;12897;50.812;4.430;2023-01-24T05:27:52;59.83;;;32.73;;
24799;SDS011;12897;50.812;4.430;2023-01-24T05:30:21;56.05;;;31.85;;
24799;SDS011;12897;50.812;4.430;2023-01-24T05:32:48;56.28;;;31.23;;
24799;SDS011;12897;50.812;4.430;2023-01-24T05:35:16;54.88;;;27.25;;
24799;SDS011;12897;50.812;4.430;2023-01-24T05:37:47;54.38;;;31.25;;
24799;SDS011;12897;50.812;4.430;2023-01-24T05:40:15;56.95;;;32.30;;
24799;SDS011;12897;50.812;4.430;2023-01-24T05:42:43;60.45;;;32.60;;
24799;SDS011;12897;50.812;4.430;2023-01-24T05:45:10;60.50;;;34.18;;
24799;SDS011;12897;50.812;4.430;2023-01-24T05:47:38;56.45;;;32.20;;
24799;SDS011;12897;50.812;4.430;2023-01-24T05:50:06;63.35;;;34.65;;
24799;SDS011;12897;50.812;4.430;2023-01-24T05:52:36;62.65;;;33.90;;
24799;SDS011;12897;50.812;4.430;2023-01-24T05:55:03;61.88;;;34.35;;
24799;SDS011;12897;50.812;4.430;2023-01-24T05:57:31;69.50;;;37.15;;
24799;SDS011;12897;50.812;4.430;2023-01-24T06:00:02;61.90;;;36.10;;
24799;SDS011;12897;50.812;4.430;2023-01-24T06:02:30;68.97;;;38.98;;
24799;SDS011;12897;50.812;4.430;2023-01-24T06:04:58;67.20;;;37.05;;
24799;SDS011;12897;50.812;4.430;2023-01-24T06:07:25;72.75;;;39.40;;
24799;SDS011;12897;50.812;4.430;2023-01-24T06:09:55;66.90;;;37.85;;
24799;SDS011;12897;50.812;4.430;2023-01-24T06:12:23;74.27;;;40.25;;
24799;SDS011;12897;50.812;4.430;2023-01-24T06:14:52;71.37;;;39.42;;
24799;SDS011;12897;50.812;4.430;2023-01-24T06:17:19;71.95;;;39.42;;
24799;SDS011;12897;50.812;4.430;2023-01-24T06:19:47;70.97;;;39.05;;
24799;SDS011;12897;50.812;4.430;2023-01-24T06:22:18;74.45;;;40.98;;
24799;SDS011;12897;50.812;4.430;2023-01-24T06:24:45;68.70;;;40.10;;
24799;SDS011;12897;50.812;4.430;2023-01-24T06:27:13;70.08;;;40.15;;
24799;SDS011;12897;50.812;4.430;2023-01-24T06:29:41;68.35;;;37.60;;
24799;SDS011;12897;50.812;4.430;2023-01-24T06:32:32;70.95;;;39.05;;
24799;SDS011;12897;50.812;4.430;2023-01-24T06:35:03;72.20;;;37.80;;
24799;SDS011;12897;50.812;4.430;2023-01-24T06:37:47;69.17;;;36.70;;
24799;SDS011;12897;50.812;4.430;2023-01-24T06:40:16;73.83;;;38.65;;
24799;SDS011;12897;50.812;4.430;2023-01-24T06:42:45;74.35;;;40.90;;
24799;SDS011;12897;50.812;4.430;2023-01-24T06:45:13;75.87;;;40.00;;
24799;SDS011;12897;50.812;4.430;2023-01-24T06:47:41;71.95;;;38.38;;
24799;SDS011;12897;50.812;4.430;2023-01-24T06:50:17;71.35;;;39.58;;
24799;SDS011;12897;50.812;4.430;2023-01-24T06:52:47;71.42;;;38.73;;
24799;SDS011;12897;50.812;4.430;2023-01-24T06:55:15;75.47;;;41.00;;
24799;SDS011;12897;50.812;4.430;2023-01-24T06:57:43;73.97;;;40.40;;
24799;SDS011;12897;50.812;4.430;2023-01-24T07:00:14;74.27;;;40.20;;
24799;SDS011;12897;50.812;4.430;2023-01-24T07:02:41;77.72;;;41.33;;
24799;SDS011;12897;50.812;4.430;2023-01-24T07:05:09;78.62;;;39.08;;
24799;SDS011;12897;50.812;4.430;2023-01-24T07:07:37;75.75;;;41.15;;
24799;SDS011;12897;50.812;4.430;2023-01-24T07:10:08;72.05;;;39.40;;
24799;SDS011;12897;50.812;4.430;2023-01-24T07:12:36;81.90;;;41.75;;
24799;SDS011;12897;50.812;4.430;2023-01-24T07:15:04;76.70;;;36.77;;
24799;SDS011;12897;50.812;4.430;2023-01-24T07:17:32;82.22;;;40.90;;
24799;SDS011;12897;50.812;4.430;2023-01-24T07:20:00;75.90;;;41.28;;
24799;SDS011;12897;50.812;4.430;2023-01-24T07:22:28;77.67;;;41.53;;
24799;SDS011;12897;50.812;4.430;2023-01-24T07:24:56;76.47;;;40.38;;
24799;SDS011;12897;50.812;4.430;2023-01-24T07:27:26;75.65;;;38.38;;
24799;SDS011;12897;50.812;4.430;2023-01-24T07:29:53;76.60;;;40.03;;
24799;SDS011;12897;50.812;4.430;2023-01-24T07:32:20;78.47;;;41.75;;
24799;SDS011;12897;50.812;4.430;2023-01-24T07:34:49;79.27;;;42.60;;
24799;SDS011;12897;50.812;4.430;2023-01-24T07:37:16;76.80;;;42.00;;
24799;SDS011;12897;50.812;4.430;2023-01-24T07:39:45;82.63;;;42.47;;
24799;SDS011;12897;50.812;4.430;2023-01-24T07:42:14;81.45;;;42.27;;
24799;SDS011;12897;50.812;4.430;2023-01-24T07:44:43;77.27;;;40.90;;
24799;SDS011;12897;50.812;4.430;2023-01-24T07:47:10;80.97;;;40.73;;
24799;SDS011;12897;50.812;4.430;2023-01-24T07:49:40;82.10;;;43.35;;
24799;SDS011;12897;50.812;4.430;2023-01-24T07:52:08;79.07;;;42.05;;
24799;SDS011;12897;50.812;4.430;2023-01-24T07:54:36;77.00;;;41.23;;
24799;SDS011;12897;50.812;4.430;2023-01-24T07:57:03;78.70;;;41.58;;
24799;SDS011;12897;50.812;4.430;2023-01-24T07:59:31;78.65;;;40.50;;
24799;SDS011;12897;50.812;4.430;2023-01-24T08:01:59;72.55;;;39.13;;
24799;SDS011;12897;50.812;4.430;2023-01-24T08:04:26;74.92;;;41.48;;
24799;SDS011;12897;50.812;4.430;2023-01-24T08:06:54;74.03;;;40.55;;
24799;SDS011;12897;50.812;4.430;2023-01-24T08:09:32;74.05;;;36.75;;
24799;SDS011;12897;50.812;4.430;2023-01-24T08:12:01;71.60;;;38.63;;
24799;SDS011;12897;50.812;4.430;2023-01-24T08:14:29;74.20;;;41.08;;
24799;SDS011;12897;50.812;4.430;2023-01-24T08:16:56;69.10;;;37.80;;
24799;SDS011;12897;50.812;4.430;2023-01-24T08:19:24;66.87;;;37.08;;
24799;SDS011;12897;50.812;4.430;2023-01-24T08:21:51;70.72;;;37.65;;
24799;SDS011;12897;50.812;4.430;2023-01-24T08:24:20;68.15;;;37.28;;
24799;SDS011;12897;50.812;4.430;2023-01-24T08:26:47;73.47;;;38.50;;
24799;SDS011;12897;50.812;4.430;2023-01-24T08:29:16;72.37;;;38.87;;
24799;SDS011;12897;50.812;4.430;2023-01-24T08:31:44;75.50;;;39.55;;
24799;SDS011;12897;50.812;4.430;2023-01-24T08:36:57;75.12;;;41.37;;
24799;SDS011;12897;50.812;4.430;2023-01-24T08:39:30;74.70;;;40.25;;
24799;SDS011;12897;50.812;4.430;2023-01-24T08:42:09;71.42;;;39.15;;
24799;SDS011;12897;50.812;4.430;2023-01-24T08:44:37;66.53;;;34.53;;
24799;SDS011;12897;50.812;4.430;2023-01-24T08:47:04;72.58;;;39.95;;
24799;SDS011;12897;50.812;4.430;2023-01-24T08:49:32;75.00;;;40.50;;
24799;SDS011;12897;50.812;4.430;2023-01-24T08:51:59;74.10;;;39.42;;
24799;SDS011;12897;50.812;4.430;2023-01-24T08:54:28;71.07;;;39.40;;
24799;SDS011;12897;50.812;4.430;2023-01-24T08:57:03;71.70;;;39.75;;
24799;SDS011;12897;50.812;4.430;2023-01-24T08:59:32;78.02;;;40.95;;
24799;SDS011;12897;50.812;4.430;2023-01-24T09:02:00;71.53;;;39.58;;
24799;SDS011;12897;50.812;4.430;2023-01-24T09:04:27;72.75;;;39.80;;
24799;SDS011;12897;50.812;4.430;2023-01-24T09:06:55;70.67;;;38.80;;
24799;SDS011;12897;50.812;4.430;2023-01-24T09:09:23;60.80;;;36.13;;
24799;SDS011;12897;50.812;4.430;2023-01-24T09:11:51;59.90;;;35.05;;
24799;SDS011;12897;50.812;4.430;2023-01-24T09:14:22;58.45;;;33.92;;
24799;SDS011;12897;50.812;4.430;2023-01-24T09:16:49;60.50;;;34.43;;
24799;SDS011;12897;50.812;4.430;2023-01-24T09:19:17;60.60;;;34.73;;
24799;SDS011;12897;50.812;4.430;2023-01-24T09:21:44;64.05;;;31.42;;
24799;SDS011;12897;50.812;4.430;2023-01-24T09:24:14;69.75;;;37.15;;
24799;SDS011;12897;50.812;4.430;2023-01-24T09:26:42;62.58;;;35.50;;
24799;SDS011;12897;50.812;4.430;2023-01-24T09:29:11;68.47;;;36.23;;
24799;SDS011;12897;50.812;4.430;2023-01-24T09:31:40;61.13;;;34.80;;
24799;SDS011;12897;50.812;4.430;2023-01-24T09:36:51;59.38;;;32.55;;
24799;SDS011;12897;50.812;4.430;2023-01-24T09:39:31;60.55;;;34.85;;
24799;SDS011;12897;50.812;4.430;2023-01-24T09:42:09;59.38;;;34.63;;
24799;SDS011;12897;50.812;4.430;2023-01-24T09:44:48;60.38;;;35.60;;
24799;SDS011;12897;50.812;4.430;2023-01-24T09:50:01;62.70;;;35.95;;
24799;SDS011;12897;50.812;4.430;2023-01-24T09:52:31;62.27;;;37.03;;
24799;SDS011;12897;50.812;4.430;2023-01-24T09:55:19;62.10;;;35.63;;
24799;SDS011;12897;50.812;4.430;2023-01-24T10:00:31;64.05;;;36.50;;
24799;SDS011;12897;50.812;4.430;2023-01-24T10:05:40;54.10;;;31.00;;
24799;SDS011;12897;50.812;4.430;2023-01-24T10:08:34;49.05;;;29.32;;
24799;SDS011;12897;50.812;4.430;2023-01-24T10:10:44;46.70;;;29.50;;
24799;SDS011;12897;50.812;4.430;2023-01-24T10:13:22;48.87;;;28.32;;
24799;SDS011;12897;50.812;4.430;2023-01-24T10:21:32;41.63;;;25.65;;
24799;SDS011;12897;50.812;4.430;2023-01-24T10:23:59;42.40;;;26.05;;
24799;SDS011;12897;50.812;4.430;2023-01-24T10:26:44;38.28;;;24.02;;
24799;SDS011;12897;50.812;4.430;2023-01-24T10:29:22;40.90;;;25.12;;
24799;SDS011;12897;50.812;4.430;2023-01-24T10:32:01;43.02;;;26.27;;
24799;SDS011;12897;50.812;4.430;2023-01-24T10:34:39;43.78;;;26.10;;
24799;SDS011;12897;50.812;4.430;2023-01-24T10:39:41;40.55;;;25.43;;
24799;SDS011;12897;50.812;4.430;2023-01-24T10:42:27;40.87;;;26.03;;
24799;SDS011;12897;50.812;4.430;2023-01-24T10:45:00;40.52;;;23.98;;
24799;SDS011;12897;50.812;4.430;2023-01-24T10:47:38;38.88;;;22.05;;
24799;SDS011;12897;50.812;4.430;2023-01-24T10:50:17;42.30;;;24.25;;
24799;SDS011;12897;50.812;4.430;2023-01-24T10:52:46;39.42;;;23.12;;
24799;SDS011;12897;50.812;4.430;2023-01-24T10:55:27;41.10;;;24.52;;
24799;SDS011;12897;50.812;4.430;2023-01-24T10:58:18;41.80;;;25.50;;
24799;SDS011;12897;50.812;4.430;2023-01-24T11:00:47;39.70;;;25.43;;
24799;SDS011;12897;50.812;4.430;2023-01-24T11:03:27;44.63;;;25.45;;
24799;SDS011;12897;50.812;4.430;2023-01-24T11:05:58;39.27;;;25.43;;
24799;SDS011;12897;50.812;4.430;2023-01-24T11:08:39;44.63;;;26.68;;
24799;SDS011;12897;50.812;4.430;2023-01-24T11:11:03;42.95;;;25.77;;
24799;SDS011;12897;50.812;4.430;2023-01-24T11:13:36;40.58;;;25.45;;
24799;SDS011;12897;50.812;4.430;2023-01-24T11:18:47;42.62;;;26.55;;
24799;SDS011;12897;50.812;4.430;2023-01-24T11:21:21;48.70;;;29.42;;
24799;SDS011;12897;50.812;4.430;2023-01-24T11:24:31;48.65;;;28.27;;
24799;SDS011;12897;50.812;4.430;2023-01-24T11:26:38;49.23;;;28.38;;
24799;SDS011;12897;50.812;4.430;2023-01-24T11:29:19;45.95;;;25.85;;
24799;SDS011;12897;50.812;4.430;2023-01-24T11:31:47;42.17;;;25.25;;
24799;SDS011;12897;50.812;4.430;2023-01-24T11:37:23;45.25;;;25.77;;
24799;SDS011;12897;50.812;4.430;2023-01-24T11:48:38;46.42;;;27.05;;
24799;SDS011;12897;50.812;4.430;2023-01-24T11:54:02;44.48;;;23.87;;
24799;SDS011;12897;50.812;4.430;2023-01-24T12:01:57;39.05;;;21.25;;
24799;SDS011;12897;50.812;4.430;2023-01-24T12:13:05;37.05;;;23.02;;
24799;SDS011;12897;50.812;4.430;2023-01-24T12:15:53;35.90;;;19.32;;
24799;SDS011;12897;50.812;4.430;2023-01-24T12:21:21;43.58;;;25.23;;
24799;SDS011;12897;50.812;4.430;2023-01-24T12:23:54;39.30;;;23.87;;
24799;SDS011;12897;50.812;4.430;2023-01-24T12:26:32;41.85;;;24.23;;
24799;SDS011;12897;50.812;4.430;2023-01-24T12:29:01;45.92;;;25.75;;
24799;SDS011;12897;50.812;4.430;2023-01-24T12:31:42;43.70;;;26.37;;
24799;SDS011;12897;50.812;4.430;2023-01-24T12:37:30;42.27;;;24.23;;
24799;SDS011;12897;50.812;4.430;2023-01-24T12:39:46;42.05;;;24.87;;
24799;SDS011;12897;50.812;4.430;2023-01-24T12:42:19;43.20;;;24.65;;
24799;SDS011;12897;50.812;4.430;2023-01-24T12:44:49;40.03;;;23.22;;
24799;SDS011;12897;50.812;4.430;2023-01-24T12:47:25;43.25;;;25.25;;
24799;SDS011;12897;50.812;4.430;2023-01-24T12:50:09;46.73;;;25.80;;
24799;SDS011;12897;50.812;4.430;2023-01-24T12:53:05;40.80;;;23.35;;
24799;SDS011;12897;50.812;4.430;2023-01-24T12:55:52;40.85;;;21.55;;
24799;SDS011;12897;50.812;4.430;2023-01-24T13:12:07;43.87;;;25.52;;
24799;SDS011;12897;50.812;4.430;2023-01-24T13:14:45;41.70;;;22.75;;
24799;SDS011;12897;50.812;4.430;2023-01-24T13:17:31;41.25;;;23.50;;
24799;SDS011;12897;50.812;4.430;2023-01-24T13:22:56;40.43;;;24.15;;
24799;SDS011;12897;50.812;4.430;2023-01-24T13:25:43;43.83;;;23.22;;
24799;SDS011;12897;50.812;4.430;2023-01-24T13:31:53;46.60;;;25.12;;
24799;SDS011;12897;50.812;4.430;2023-01-24T13:34:00;45.78;;;27.82;;
24799;SDS011;12897;50.812;4.430;2023-01-24T13:36:34;44.45;;;25.72;;
24799;SDS011;12897;50.812;4.430;2023-01-24T13:39:04;48.52;;;27.17;;
24799;SDS011;12897;50.812;4.430;2023-01-24T13:41:33;49.35;;;28.47;;
24799;SDS011;12897;50.812;4.430;2023-01-24T13:47:00;48.73;;;28.32;;
24799;SDS011;12897;50.812;4.430;2023-01-24T13:49:38;50.23;;;29.30;;
24799;SDS011;12897;50.812;4.430;2023-01-24T13:55:04;54.08;;;28.00;;
24799;SDS011;12897;50.812;4.430;2023-01-24T13:57:37;45.63;;;28.12;;
24799;SDS011;12897;50.812;4.430;2023-01-24T14:02:39;48.65;;;29.37;;
24799;SDS011;12897;50.812;4.430;2023-01-24T14:08:13;50.78;;;28.70;;
24799;SDS011;12897;50.812;4.430;2023-01-24T14:10:39;50.67;;;29.02;;
24799;SDS011;12897;50.812;4.430;2023-01-24T14:21:47;49.30;;;29.15;;
24799;SDS011;12897;50.812;4.430;2023-01-24T14:26:56;46.35;;;28.85;;
24799;SDS011;12897;50.812;4.430;2023-01-24T14:31:57;53.83;;;28.25;;
24799;SDS011;12897;50.812;4.430;2023-01-24T14:34:38;58.48;;;32.30;;
24799;SDS011;12897;50.812;4.430;2023-01-24T14:37:09;53.60;;;30.55;;
24799;SDS011;12897;50.812;4.430;2023-01-24T14:39:38;52.38;;;31.37;;
24799;SDS011;12897;50.812;4.430;2023-01-24T14:42:07;50.58;;;30.48;;
24799;SDS011;12897;50.812;4.430;2023-01-24T14:44:39;48.73;;;27.42;;
24799;SDS011;12897;50.812;4.430;2023-01-24T14:47:21;45.75;;;27.80;;
24799;SDS011;12897;50.812;4.430;2023-01-24T14:49:52;45.85;;;27.52;;
24799;SDS011;12897;50.812;4.430;2023-01-24T14:52:22;52.98;;;30.60;;
24799;SDS011;12897;50.812;4.430;2023-01-24T15:02:50;46.63;;;28.20;;
24799;SDS011;12897;50.812;4.430;2023-01-24T15:05:26;52.60;;;29.77;;
24799;SDS011;12897;50.812;4.430;2023-01-24T15:08:05;48.17;;;28.10;;
24799;SDS011;12897;50.812;4.430;2023-01-24T15:10:38;48.25;;;29.60;;
24799;SDS011;12897;50.812;4.430;2023-01-24T15:13:08;50.12;;;30.82;;
24799;SDS011;12897;50.812;4.430;2023-01-24T15:15:38;46.45;;;28.92;;
24799;SDS011;12897;50.812;4.430;2023-01-24T15:18:06;50.33;;;29.50;;
24799;SDS011;12897;50.812;4.430;2023-01-24T15:20:35;49.08;;;29.23;;
24799;SDS011;12897;50.812;4.430;2023-01-24T15:23:04;52.85;;;31.02;;
24799;SDS011;12897;50.812;4.430;2023-01-24T15:25:33;55.87;;;32.37;;
24799;SDS011;12897;50.812;4.430;2023-01-24T15:30:51;50.25;;;30.50;;
24799;SDS011;12897;50.812;4.430;2023-01-24T15:33:20;56.48;;;32.08;;
24799;SDS011;12897;50.812;4.430;2023-01-24T15:35:51;52.90;;;30.45;;
24799;SDS011;12897;50.812;4.430;2023-01-24T15:38:23;48.08;;;30.32;;
24799;SDS011;12897;50.812;4.430;2023-01-24T15:40:55;48.48;;;28.73;;
24799;SDS011;12897;50.812;4.430;2023-01-24T15:43:32;48.02;;;27.95;;
24799;SDS011;12897;50.812;4.430;2023-01-24T15:46:18;49.58;;;28.27;;
24799;SDS011;12897;50.812;4.430;2023-01-24T15:49:04;48.70;;;29.00;;
24799;SDS011;12897;50.812;4.430;2023-01-24T15:51:34;49.75;;;28.60;;
24799;SDS011;12897;50.812;4.430;2023-01-24T15:54:09;51.33;;;29.12;;
24799;SDS011;12897;50.812;4.430;2023-01-24T15:56:38;44.73;;;27.50;;
24799;SDS011;12897;50.812;4.430;2023-01-24T15:59:25;43.70;;;26.75;;
24799;SDS011;12897;50.812;4.430;2023-01-24T16:01:40;43.58;;;27.10;;
24799;SDS011;12897;50.812;4.430;2023-01-24T16:04:11;43.40;;;25.48;;
24799;SDS011;12897;50.812;4.430;2023-01-24T16:06:47;42.75;;;26.37;;
24799;SDS011;12897;50.812;4.430;2023-01-24T16:09:13;41.85;;;25.35;;
24799;SDS011;12897;50.812;4.430;2023-01-24T16:11:41;43.30;;;25.90;;
24799;SDS011;12897;50.812;4.430;2023-01-24T16:16:39;45.25;;;25.40;;
24799;SDS011;12897;50.812;4.430;2023-01-24T16:19:16;42.30;;;26.17;;
24799;SDS011;12897;50.812;4.430;2023-01-24T16:21:38;45.85;;;27.30;;
24799;SDS011;12897;50.812;4.430;2023-01-24T16:24:06;41.77;;;24.07;;
24799;SDS011;12897;50.812;4.430;2023-01-24T16:26:34;42.03;;;24.60;;
24799;SDS011;12897;50.812;4.430;2023-01-24T16:29:01;43.38;;;24.37;;
24799;SDS011;12897;50.812;4.430;2023-01-24T16:31:29;41.80;;;24.50;;
24799;SDS011;12897;50.812;4.430;2023-01-24T16:33:57;38.20;;;22.75;;
24799;SDS011;12897;50.812;4.430;2023-01-24T16:36:25;45.28;;;24.85;;
24799;SDS011;12897;50.812;4.430;2023-01-24T16:38:52;44.03;;;23.80;;
24799;SDS011;12897;50.812;4.430;2023-01-24T16:41:26;39.75;;;22.32;;
24799;SDS011;12897;50.812;4.430;2023-01-24T16:43:59;40.50;;;23.62;;
24799;SDS011;12897;50.812;4.430;2023-01-24T16:46:27;40.98;;;22.10;;
24799;SDS011;12897;50.812;4.430;2023-01-24T16:48:54;39.75;;;22.15;;
24799;SDS011;12897;50.812;4.430;2023-01-24T16:51:23;36.90;;;22.20;;
24799;SDS011;12897;50.812;4.430;2023-01-24T16:53:53;40.78;;;23.98;;